UPSVAC Airport Information Service

Tampa International Airport

ICAO: KTPA Country: United States
Latitude: 27.9755 Longitude: -82.5332
Latest Arrival : SOO6920 (KIAH-KTPA) Latest Departure : SCX6050 (B) (KTPA-KMSP)


WX CaptureLIVE
Data provided by noaa.gov | Fetched at 22:24:51

METAR : KTPA 112153Z 29009KT 10SM FEW045 BKN250 31/20 A3003 RMK AO2 SLP167 T03060200 $

TAF : KTPA 112104Z 1121/1224 27009KT P6SM SCT030 BKN250 FM112300 30007KT P6SM FEW030 SCT250 FM120200 VRB03KT P6SM SCT250 FM121400 24006KT P6SM FEW030 SCT250


Runway Data for KTPA
Data provided by openaviationdata.com

Runway ID Mag Var Hdg Length Elevation Surface ILS Freq ILS Id ILS Slope
9 -2 93° 6992 ft 26 ft Concrete -- -- --
18L -2 183° 8323 ft 26 ft Concrete 110.3 ITPA 3
18R -2 183° 11032 ft 26 ft Concrete 108.5 IJRT 3
27 -2 273° 6992 ft 26 ft Concrete -- -- --
36L -2 11032 ft 26 ft Concrete 108.9 IAMP 3
36R -2 8323 ft 26 ft Concrete 111.95 ITWJ 0

Tampa International Airport, United States
Use only for reference purposes



Not for navigational purposes.